createdAt,value
2019-02-21T00:00:39.824Z,37.77
2019-02-21T00:05:42.506Z,28.43
2019-02-21T00:10:45.215Z,27.27
2019-02-21T00:15:47.968Z,22.90
2019-02-21T00:20:50.644Z,44.97
2019-02-21T00:25:55.731Z,25.97
2019-02-21T00:30:58.004Z,26.40
2019-02-21T00:36:00.710Z,30.87
2019-02-21T00:41:04.314Z,28.13
2019-02-21T00:46:07.007Z,26.43
2019-02-21T00:51:09.718Z,30.57
2019-02-21T00:56:12.394Z,30.80
2019-02-21T01:01:15.083Z,28.27
2019-02-21T01:06:17.775Z,32.80
2019-02-21T01:11:20.657Z,28.77
2019-02-21T01:16:23.338Z,24.80
2019-02-21T01:21:26.017Z,30.53
2019-02-21T01:26:28.739Z,30.23
2019-02-21T01:31:31.439Z,31.60
2019-02-21T01:36:34.123Z,25.07
2019-02-21T01:41:36.811Z,27.33
2019-02-21T01:46:39.536Z,25.73
2019-02-21T01:51:42.214Z,31.90
2019-02-21T01:56:44.898Z,29.07
2019-02-21T02:01:47.585Z,27.50
2019-02-21T02:06:50.267Z,22.40
2019-02-21T02:11:53.008Z,28.20
2019-02-21T02:16:55.671Z,28.53
2019-02-21T02:21:58.362Z,27.67
2019-02-21T02:27:01.119Z,27.70
2019-02-21T02:32:03.888Z,25.30
2019-02-21T02:37:06.588Z,24.53
2019-02-21T02:42:09.256Z,25.23
2019-02-21T02:47:11.930Z,21.77
2019-02-21T02:52:14.650Z,23.90
2019-02-21T02:57:17.337Z,30.93
2019-02-21T03:02:20.002Z,26.03
2019-02-21T03:07:22.677Z,31.20
2019-02-21T03:12:25.359Z,26.40
2019-02-21T03:17:28.063Z,26.10
2019-02-21T03:22:30.751Z,26.03
2019-02-21T03:27:33.470Z,23.40
2019-02-21T03:32:36.179Z,23.27
2019-02-21T03:37:38.913Z,19.97
2019-02-21T03:42:41.733Z,27.33
2019-02-21T03:47:44.413Z,28.40
2019-02-21T03:52:47.089Z,25.97
2019-02-21T03:57:49.768Z,24.63
2019-02-21T04:02:52.474Z,22.13
2019-02-21T04:07:55.176Z,24.57
2019-02-21T04:12:57.853Z,32.23
2019-02-21T04:18:00.573Z,32.27
2019-02-21T04:23:03.282Z,25.23
2019-02-21T04:28:05.971Z,25.70
2019-02-21T04:33:08.655Z,25.23
2019-02-21T04:38:11.350Z,24.63
2019-02-21T04:43:14.092Z,27.33
2019-02-21T04:48:16.774Z,29.60
2019-02-21T04:53:19.453Z,28.40
2019-02-21T04:58:22.561Z,30.67
2019-02-21T05:03:25.229Z,28.47
2019-02-21T05:08:27.926Z,26.60
2019-02-21T05:13:30.628Z,27.30
2019-02-21T05:18:33.388Z,27.90
2019-02-21T05:23:36.838Z,26.57
2019-02-21T05:28:41.296Z,23.70
2019-02-21T05:34:09.684Z,23.63
2019-02-21T05:39:34.854Z,22.03
2019-02-21T05:44:43.085Z,32.03
2019-02-21T05:49:54.274Z,24.03
2019-02-21T05:55:04.857Z,29.17
2019-02-21T06:00:42.601Z,27.47
2019-02-21T06:06:04.951Z,37.63
2019-02-21T06:11:25.946Z,34.17
2019-02-21T06:16:46.600Z,26.40
2019-02-21T06:22:10.138Z,28.07
2019-02-21T06:27:13.069Z,25.83
2019-02-21T06:32:15.730Z,25.50
2019-02-21T06:37:18.407Z,30.37
2019-02-21T06:42:21.112Z,29.63
2019-02-21T06:47:23.786Z,30.83
2019-02-21T06:52:26.464Z,32.03
2019-02-21T06:57:29.153Z,30.40
2019-02-21T07:02:31.817Z,30.10
2019-02-21T07:07:34.494Z,27.03
2019-02-21T07:12:37.163Z,31.27
2019-02-21T07:17:48.907Z,32.17
2019-02-21T07:22:44.405Z,31.90
2019-02-21T07:27:47.092Z,29.40
2019-02-21T07:32:49.758Z,33.33
2019-02-21T07:37:52.425Z,36.80
2019-02-21T07:42:55.083Z,29.00
2019-02-21T07:47:57.744Z,31.93
2019-02-21T07:53:02.706Z,30.73
2019-02-21T07:58:05.008Z,35.00
2019-02-21T08:03:09.181Z,29.63
2019-02-21T08:08:12.082Z,36.23
2019-02-21T08:13:14.751Z,36.73
2019-02-21T08:18:17.443Z,34.07
2019-02-21T08:23:20.147Z,36.40
2019-02-21T08:28:22.840Z,32.13
2019-02-21T08:33:58.357Z,35.00
2019-02-21T08:38:55.357Z,35.90
2019-02-21T08:43:58.028Z,34.47
2019-02-21T08:49:00.699Z,35.10
2019-02-21T08:54:05.545Z,39.67
2019-02-21T08:59:07.959Z,36.93
2019-02-21T09:04:26.417Z,39.33
2019-02-21T09:09:15.198Z,29.70
2019-02-21T09:14:17.883Z,30.10
2019-02-21T09:19:20.581Z,34.73
2019-02-21T09:24:37.499Z,27.33
2019-02-21T09:29:27.853Z,28.27
2019-02-21T09:34:30.527Z,30.73
2019-02-21T09:39:33.228Z,39.57
2019-02-21T09:44:36.019Z,29.87
2019-02-21T09:49:38.699Z,37.03
2019-02-21T09:54:41.389Z,27.57
2019-02-21T09:59:44.071Z,34.17
2019-02-21T10:04:46.748Z,32.07
2019-02-21T10:09:49.419Z,31.70
2019-02-21T10:14:52.111Z,30.17
2019-02-21T10:19:54.770Z,36.33
2019-02-21T10:24:57.466Z,27.27
2019-02-21T10:30:00.239Z,30.53
2019-02-21T10:35:03.555Z,29.30
2019-02-21T10:40:08.516Z,28.50
2019-02-21T10:45:13.892Z,31.80
2019-02-21T10:50:17.853Z,31.63
2019-02-21T10:55:24.157Z,35.47
2019-02-21T11:00:31.646Z,27.07
2019-02-21T11:05:44.263Z,29.67
2019-02-21T11:10:53.579Z,34.30
2019-02-21T11:15:56.327Z,36.07
2019-02-21T11:21:02.147Z,32.97
2019-02-21T11:26:06.232Z,30.57
2019-02-21T11:31:08.957Z,29.67
2019-02-21T11:36:11.639Z,31.37
2019-02-21T11:41:14.311Z,30.93
2019-02-21T11:46:16.981Z,35.37
2019-02-21T11:51:19.660Z,40.13
2019-02-21T11:56:22.334Z,36.30
2019-02-21T12:01:25.006Z,34.53
2019-02-21T12:06:27.678Z,27.23
2019-02-21T12:11:30.360Z,29.77
2019-02-21T12:16:33.038Z,27.50
2019-02-21T12:21:35.730Z,26.53
2019-02-21T12:26:38.400Z,28.37
2019-02-21T12:31:41.085Z,24.47
2019-02-21T12:36:43.774Z,27.57
2019-02-21T12:41:46.443Z,26.43
2019-02-21T12:46:49.143Z,24.73
2019-02-21T12:51:51.842Z,23.10
2019-02-21T12:56:54.516Z,25.67
2019-02-21T13:01:57.222Z,21.73
2019-02-21T13:06:59.923Z,23.00
2019-02-21T13:12:02.725Z,25.13
2019-02-21T13:17:05.403Z,30.03
2019-02-21T13:22:08.083Z,23.07
2019-02-21T13:27:10.759Z,23.10
2019-02-21T13:32:13.434Z,26.37
2019-02-21T13:37:27.971Z,34.53
2019-02-21T13:42:20.693Z,25.23
2019-02-21T13:47:23.374Z,28.67
2019-02-21T13:52:26.067Z,24.93
2019-02-21T13:57:28.743Z,31.73
2019-02-21T14:02:31.413Z,27.73
2019-02-21T14:07:34.102Z,22.17
2019-02-21T14:12:36.761Z,25.50
2019-02-21T14:17:39.452Z,29.90
2019-02-21T14:22:42.146Z,24.90
2019-02-21T14:27:44.851Z,20.27
2019-02-21T14:32:47.553Z,30.10
2019-02-21T14:37:50.228Z,25.10
2019-02-21T14:42:52.930Z,21.20
2019-02-21T14:47:55.640Z,23.23
2019-02-21T14:52:58.319Z,29.00
2019-02-21T14:58:01.015Z,21.77
2019-02-21T15:03:03.740Z,23.43
2019-02-21T15:08:06.427Z,31.60
2019-02-21T15:13:09.110Z,33.93
2019-02-21T15:18:11.814Z,31.60
2019-02-21T15:23:14.491Z,29.00
2019-02-21T15:28:17.167Z,31.37
2019-02-21T15:33:19.860Z,35.33
2019-02-21T15:38:22.538Z,30.43
2019-02-21T15:43:25.248Z,28.23
2019-02-21T15:48:27.971Z,33.13
2019-02-21T15:53:30.674Z,29.20
2019-02-21T15:58:33.371Z,33.90
2019-02-21T16:03:36.062Z,31.27
2019-02-21T16:08:38.734Z,38.87
2019-02-21T16:13:41.546Z,32.77
2019-02-21T16:18:44.818Z,35.17
2019-02-21T16:23:47.541Z,33.83
2019-02-21T16:28:50.289Z,36.53
2019-02-21T16:33:52.979Z,35.43
2019-02-21T16:44:02.101Z,37.10
2019-02-21T16:54:21.571Z,35.83
2019-02-21T16:59:24.244Z,42.37
2019-02-21T17:04:26.942Z,46.17
2019-02-21T17:09:29.678Z,37.17
2019-02-21T17:14:32.467Z,43.27
2019-02-21T17:19:35.180Z,41.37
2019-02-21T17:24:37.892Z,45.17
2019-02-21T17:29:40.577Z,43.03
2019-02-21T17:34:43.295Z,41.80
2019-02-21T17:39:45.976Z,46.07
2019-02-21T17:44:48.670Z,37.00
2019-02-21T17:49:51.365Z,53.97
2019-02-21T17:54:54.060Z,40.60
2019-02-21T17:59:56.779Z,51.10
2019-02-21T18:04:59.485Z,51.93
2019-02-21T18:10:02.712Z,44.57
2019-02-21T18:15:05.942Z,51.20
2019-02-21T18:20:09.263Z,49.70
2019-02-21T18:25:17.107Z,61.97
2019-02-21T18:30:19.799Z,48.20
2019-02-21T18:35:22.505Z,53.60
2019-02-21T18:40:25.207Z,52.90
2019-02-21T18:45:27.889Z,54.13
2019-02-21T18:50:38.199Z,46.33
2019-02-21T18:55:35.346Z,63.27
2019-02-21T19:00:38.093Z,54.43
2019-02-21T19:05:40.806Z,53.73
2019-02-21T19:10:43.553Z,57.33
2019-02-21T19:15:46.332Z,58.60
2019-02-21T19:20:49.100Z,59.33
2019-02-21T19:25:51.851Z,62.20
2019-02-21T19:31:03.795Z,62.50
2019-02-21T19:36:06.483Z,62.83
2019-02-21T19:41:09.492Z,58.63
2019-02-21T19:46:12.213Z,51.33
2019-02-21T19:51:14.894Z,54.27
2019-02-21T19:56:17.579Z,52.87
2019-02-21T20:01:20.278Z,56.33
2019-02-21T20:06:22.980Z,57.30
2019-02-21T20:11:25.727Z,54.60
2019-02-21T20:16:28.484Z,50.80
2019-02-21T20:21:31.295Z,60.97
2019-02-21T20:26:34.022Z,55.30
2019-02-21T20:31:36.702Z,59.87
2019-02-21T20:36:50.451Z,55.23
2019-02-21T20:41:44.068Z,53.90
2019-02-21T20:46:46.842Z,61.50
2019-02-21T20:51:49.529Z,66.80
2019-02-21T20:56:52.262Z,67.07
2019-02-21T21:01:54.987Z,59.60
2019-02-21T21:06:57.685Z,59.07
2019-02-21T21:12:00.362Z,71.23
2019-02-21T21:17:03.048Z,72.70
2019-02-21T21:22:05.763Z,62.47
2019-02-21T21:27:08.526Z,69.70
2019-02-21T21:32:11.220Z,63.43
2019-02-21T21:37:13.918Z,53.27
2019-02-21T21:42:16.612Z,46.40
2019-02-21T21:47:19.321Z,53.27
2019-02-21T21:52:22.028Z,44.87
2019-02-21T21:57:24.709Z,49.90
2019-02-21T22:02:27.407Z,45.60
2019-02-21T22:07:30.080Z,49.40
2019-02-21T22:12:32.768Z,43.73
2019-02-21T22:17:35.463Z,43.33
2019-02-21T22:22:38.152Z,47.53
2019-02-21T22:27:40.832Z,43.43
2019-02-21T22:32:43.581Z,43.17
2019-02-21T22:37:46.350Z,38.90
2019-02-21T22:42:49.048Z,40.57
2019-02-21T22:47:51.726Z,44.47
2019-02-21T22:52:54.399Z,39.73
2019-02-21T22:57:57.079Z,38.33
2019-02-21T23:03:00.563Z,51.83
2019-02-21T23:09:04.972Z,49.70
2019-02-21T23:14:07.650Z,47.07
2019-02-21T23:19:10.437Z,45.40
2019-02-21T23:24:13.151Z,35.37
2019-02-21T23:29:15.824Z,35.30
2019-02-21T23:34:32.577Z,43.40
2019-02-21T23:39:38.427Z,36.63
2019-02-21T23:44:39.853Z,38.43
2019-02-21T23:49:42.530Z,39.53
2019-02-21T23:54:45.213Z,37.87
2019-02-21T23:59:47.889Z,36.73
